Time;durP1;ratioP1;P1;durP2;ratioP2;P2;SDS_P1;SDS_P2;PMS_P1;PMS_P2;Temp;Humidity;BMP_temperature;BMP_pressure;BME280_temperature;BME280_humidity;BME280_pressure;Samples;Min_cycle;Max_cycle;Signal;HPM_P1;HPM_P2
2022/03/30 00:01:00;;;;;;;9.95;6.18;;;;;;;20.59;45.07;100704.50;5053419;28;20270;-61
2022/03/30 00:03:25;;;;;;;9.48;5.55;;;;;;;20.58;45.04;100702.00;5053688;28;20017;-60
2022/03/30 00:05:50;;;;;;;9.77;5.70;;;;;;;20.57;45.15;100702.97;5052292;28;20120;-60
2022/03/30 00:08:16;;;;;;;10.03;5.13;;;;;;;20.53;45.04;100699.78;5053462;28;20269;-60
2022/03/30 00:10:41;;;;;;;8.90;5.43;;;;;;;20.53;45.02;100706.91;5053449;28;20785;-61
2022/03/30 00:13:08;;;;;;;9.43;5.68;;;;;;;20.50;45.20;100702.72;5052288;28;20475;-60
2022/03/30 00:15:36;;;;;;;9.48;5.15;;;;;;;20.48;45.21;100700.22;5053515;28;20025;-59
2022/03/30 00:18:02;;;;;;;11.18;5.55;;;;;;;20.47;45.08;100701.22;5053034;28;20029;-59
2022/03/30 00:20:27;;;;;;;10.90;5.47;;;;;;;20.46;45.15;100698.72;5052613;28;20025;-59
2022/03/30 00:22:52;;;;;;;10.43;5.60;;;;;;;20.45;45.45;100708.44;5052834;28;20397;-60
2022/03/30 00:25:18;;;;;;;9.02;5.22;;;;;;;20.43;45.00;100701.66;5052542;28;20289;-60
2022/03/30 00:27:46;;;;;;;9.13;5.40;;;;;;;20.41;45.18;100704.44;5053303;28;20112;-60
2022/03/30 00:30:13;;;;;;;11.18;5.60;;;;;;;20.37;45.01;100697.75;5053105;28;20029;-60
2022/03/30 00:32:38;;;;;;;8.82;5.63;;;;;;;20.36;45.07;100700.53;5052428;28;20025;-60
2022/03/30 00:35:05;;;;;;;9.85;5.90;;;;;;;20.37;45.25;100697.75;5052748;28;20029;-60
2022/03/30 00:37:30;;;;;;;9.18;5.45;;;;;;;20.35;45.22;100694.41;5052845;28;20021;-60
2022/03/30 00:39:56;;;;;;;9.38;5.53;;;;;;;20.35;45.03;100697.06;5052129;28;20082;-60
2022/03/30 00:42:23;;;;;;;11.17;6.40;;;;;;;20.33;44.86;100688.44;5053021;28;20032;-60
2022/03/30 00:44:49;;;;;;;9.02;5.38;;;;;;;20.31;45.10;100682.44;5052514;28;20282;-60
2022/03/30 00:47:25;;;;;;;8.55;5.07;;;;;;;20.29;44.75;100679.09;5052191;28;20487;-61
2022/03/30 00:49:51;;;;;;;9.43;5.13;;;;;;;20.28;44.86;100669.50;5052535;28;20025;-61
2022/03/30 00:52:18;;;;;;;11.55;5.93;;;;;;;20.27;44.97;100675.78;5052741;28;20036;-61
2022/03/30 00:54:45;;;;;;;9.63;5.18;;;;;;;20.26;44.75;100685.50;5052301;28;20044;-59
2022/03/30 00:57:13;;;;;;;9.30;5.72;;;;;;;20.25;45.02;100686.50;5052379;28;20021;-59
2022/03/30 00:59:40;;;;;;;9.65;5.72;;;;;;;20.24;44.90;100692.75;5052702;28;20494;-60
2022/03/30 01:02:06;;;;;;;9.10;5.20;;;;;;;20.23;44.97;100692.91;5051558;28;20049;-60
2022/03/30 01:04:32;;;;;;;9.52;5.65;;;;;;;20.21;44.79;100690.41;5052401;28;20029;-60
2022/03/30 01:06:57;;;;;;;10.85;5.85;;;;;;;20.20;44.82;100686.09;5052414;28;20021;-60
2022/03/30 01:09:24;;;;;;;8.32;5.05;;;;;;;20.19;44.90;100681.78;5051746;28;20027;-59
2022/03/30 01:11:51;;;;;;;8.40;5.28;;;;;;;20.17;45.01;100675.81;5052290;28;20473;-60
2022/03/30 01:14:17;;;;;;;9.65;5.72;;;;;;;20.17;45.00;100677.59;5052494;28;20057;-60
2022/03/30 01:16:42;;;;;;;9.27;5.50;;;;;;;20.17;44.94;100667.00;5051809;28;20087;-60
2022/03/30 01:19:10;;;;;;;10.65;5.55;;;;;;;20.15;44.65;100663.69;5052220;28;20028;-60
2022/03/30 01:21:39;;;;;;;9.48;5.40;;;;;;;20.14;44.49;100668.16;5051808;28;20048;-60
2022/03/30 01:24:08;;;;;;;10.85;5.50;;;;;;;20.14;44.73;100662.00;5052404;28;20021;-60
2022/03/30 01:26:34;;;;;;;11.88;5.88;;;;;;;20.11;44.61;100663.13;5052599;28;20029;-60
2022/03/30 01:29:00;;;;;;;9.13;5.13;;;;;;;20.09;44.92;100658.00;5051542;28;20017;-60
2022/03/30 01:34:10;;;;;;;11.20;5.50;;;;;;;20.08;45.20;100651.00;5052357;28;20079;-60
2022/03/30 01:36:35;;;;;;;10.38;5.43;;;;;;;20.06;44.59;100654.75;5051713;28;20029;-60
2022/03/30 01:39:05;;;;;;;9.25;5.32;;;;;;;20.05;44.74;100651.31;5052132;28;20024;-60
2022/03/30 01:41:31;;;;;;;9.70;5.15;;;;;;;20.05;44.83;100648.66;5052578;28;20029;-59
2022/03/30 01:43:56;;;;;;;9.15;5.13;;;;;;;20.05;44.54;100653.13;5051301;28;20078;-59
2022/03/30 01:46:23;;;;;;;10.85;5.68;;;;;;;20.05;44.39;100653.13;5052714;28;20025;-60
2022/03/30 01:48:48;;;;;;;8.80;5.38;;;;;;;20.05;44.54;100640.72;5052346;28;20025;-60
2022/03/30 01:51:14;;;;;;;10.05;5.35;;;;;;;20.03;44.58;100650.63;5051422;28;20025;-59
2022/03/30 01:53:40;;;;;;;9.38;5.25;;;;;;;20.02;44.51;100656.03;5052129;28;20108;-60
2022/03/30 01:56:05;;;;;;;9.45;5.53;;;;;;;19.98;44.78;100641.41;5052008;28;20041;-60
2022/03/30 01:58:31;;;;;;;9.48;5.63;;;;;;;19.98;44.64;100644.06;5051725;28;20108;-60
2022/03/30 02:00:57;;;;;;;10.65;5.40;;;;;;;19.97;44.55;100643.25;5051737;28;20476;-59
2022/03/30 02:03:23;;;;;;;10.50;5.57;;;;;;;19.97;44.56;100647.72;5052260;28;20036;-60
2022/03/30 02:05:48;;;;;;;8.43;4.70;;;;;;;19.96;44.62;100635.44;5051065;28;20029;-60
2022/03/30 02:08:13;;;;;;;9.27;5.13;;;;;;;19.94;44.55;100633.78;5052167;28;20424;-59
2022/03/30 02:10:39;;;;;;;9.27;5.07;;;;;;;19.94;44.69;100632.94;5051388;28;20282;-59
2022/03/30 02:13:05;;;;;;;9.05;4.82;;;;;;;19.93;44.33;100628.63;5051759;28;20025;-60
2022/03/30 02:15:30;;;;;;;10.45;5.45;;;;;;;19.92;44.41;100630.44;5052134;28;20025;-60
2022/03/30 02:17:57;;;;;;;9.27;5.18;;;;;;;19.92;44.39;100630.44;5051682;28;20083;-60
2022/03/30 02:20:22;;;;;;;9.57;5.57;;;;;;;19.90;44.46;100627.09;5055702;28;20377;-60
2022/03/30 02:22:48;;;;;;;10.27;5.40;;;;;;;19.90;44.56;100626.25;5055588;28;20024;-60
2022/03/30 02:25:13;;;;;;;9.68;5.93;;;;;;;19.89;44.44;100624.59;5054540;28;20033;-60
2022/03/30 02:27:38;;;;;;;12.37;5.53;;;;;;;19.88;44.30;100618.47;5055543;28;20115;-61
2022/03/30 02:30:04;;;;;;;10.77;5.13;;;;;;;19.85;44.11;100613.50;5055136;28;20099;-60
2022/03/30 02:32:29;;;;;;;8.57;5.35;;;;;;;19.84;44.33;100609.16;5054602;28;20025;-60
2022/03/30 02:34:55;;;;;;;10.32;5.40;;;;;;;19.83;44.68;100599.56;5055214;28;20083;-60
2022/03/30 02:37:20;;;;;;;10.13;5.73;;;;;;;19.81;44.58;100596.22;5055374;28;20397;-60
2022/03/30 02:39:46;;;;;;;9.15;4.80;;;;;;;19.81;44.60;100596.22;5054563;28;20285;-60
2022/03/30 02:42:12;;;;;;;10.18;6.05;;;;;;;19.80;44.58;100589.25;5054890;28;20028;-60
2022/03/30 02:44:38;;;;;;;10.85;4.80;;;;;;;19.79;44.61;100582.31;5054973;28;20021;-60
2022/03/30 02:47:05;;;;;;;10.15;5.40;;;;;;;19.75;44.44;100587.00;5054126;28;20032;-61
2022/03/30 02:49:31;;;;;;;8.52;4.72;;;;;;;19.78;44.41;100587.75;5054919;28;20457;-61
2022/03/30 02:51:56;;;;;;;11.35;5.15;;;;;;;19.78;44.36;100579.81;5054822;28;20108;-60
2022/03/30 02:54:22;;;;;;;9.80;4.80;;;;;;;19.78;44.20;100579.81;5054187;28;20071;-60
2022/03/30 02:56:47;;;;;;;8.85;5.20;;;;;;;19.77;44.43;100580.78;5054961;28;20484;-60
2022/03/30 02:59:14;;;;;;;10.07;5.18;;;;;;;19.76;44.23;100585.25;5054395;28;20036;-60
2022/03/30 03:01:39;;;;;;;10.15;5.75;;;;;;;19.74;44.33;100576.56;5054275;28;20035;-61
2022/03/30 03:04:05;;;;;;;10.80;5.60;;;;;;;19.74;44.35;100573.91;5054643;28;20100;-60
2022/03/30 03:06:31;;;;;;;11.60;5.57;;;;;;;19.73;44.08;100580.19;5054657;28;20104;-60
2022/03/30 03:08:57;;;;;;;10.90;5.30;;;;;;;19.72;44.31;100581.16;5053348;28;20033;-61
2022/03/30 03:11:23;;;;;;;12.20;5.32;;;;;;;19.72;44.16;100575.88;5054654;28;20388;-60
2022/03/30 03:13:51;;;;;;;9.10;5.00;;;;;;;19.71;44.18;100574.19;5054100;28;20033;-58
2022/03/30 03:16:18;;;;;;;8.02;4.60;;;;;;;19.69;44.23;100570.88;5053643;28;20346;-60
2022/03/30 03:18:43;;;;;;;9.18;5.00;;;;;;;19.68;44.21;100572.69;5054601;28;20055;-60
2022/03/30 03:21:08;;;;;;;10.18;5.15;;;;;;;19.68;44.45;100569.22;5053511;28;20029;-60
2022/03/30 03:23:34;;;;;;;10.27;5.57;;;;;;;19.67;44.13;100563.09;5054423;28;20451;-60
2022/03/30 03:25:59;;;;;;;9.30;5.30;;;;;;;19.65;44.04;100559.75;5053836;28;20033;-61
2022/03/30 03:28:24;;;;;;;9.07;5.03;;;;;;;19.66;44.35;100561.44;5053392;28;20302;-59
2022/03/30 03:30:50;;;;;;;9.23;5.25;;;;;;;19.65;43.82;100561.56;5053017;28;20645;-59
2022/03/30 03:33:15;;;;;;;9.43;4.73;;;;;;;19.64;44.07;100557.25;5054263;28;20464;-59
2022/03/30 03:35:41;;;;;;;9.13;5.20;;;;;;;19.62;43.97;100561.84;5053399;28;20266;-60
2022/03/30 03:38:08;;;;;;;9.02;4.95;;;;;;;19.61;44.21;100552.25;5053790;28;20108;-59
2022/03/30 03:40:35;;;;;;;8.98;4.97;;;;;;;19.59;44.16;100560.31;5053948;28;20021;-59
2022/03/30 03:43:01;;;;;;;10.15;5.22;;;;;;;19.59;43.95;100560.31;5052779;28;20021;-59
2022/03/30 03:45:27;;;;;;;10.30;5.50;;;;;;;19.58;44.10;100559.50;5053934;28;20036;-59
2022/03/30 03:47:52;;;;;;;8.60;5.10;;;;;;;19.58;43.92;100558.63;5053804;28;20017;-60
2022/03/30 03:50:18;;;;;;;10.40;5.25;;;;;;;19.57;44.10;100557.81;5053145;28;20028;-59
2022/03/30 03:52:44;;;;;;;9.15;5.20;;;;;;;19.56;43.86;100548.19;5053722;28;20063;-60
2022/03/30 03:55:10;;;;;;;9.40;4.85;;;;;;;19.55;43.90;100546.56;5053522;28;20048;-61
2022/03/30 03:57:40;;;;;;;8.18;4.53;;;;;;;19.55;44.08;100553.63;5052883;28;20090;-61
2022/03/30 04:00:08;;;;;;;10.30;4.88;;;;;;;19.52;43.84;100549.47;5053304;28;20435;-60
2022/03/30 04:02:33;;;;;;;10.30;4.63;;;;;;;19.52;43.84;100546.00;5053548;28;20025;-60
2022/03/30 04:04:58;;;;;;;11.40;5.22;;;;;;;19.51;43.95;100542.50;5052569;28;20361;-60
2022/03/30 04:07:23;;;;;;;10.97;5.30;;;;;;;19.50;43.97;100546.16;5053885;28;20036;-60
2022/03/30 04:09:49;;;;;;;11.30;5.07;;;;;;;19.51;44.05;100536.41;5053294;28;20029;-59
2022/03/30 04:12:14;;;;;;;9.80;5.05;;;;;;;19.50;43.92;100537.38;5052646;28;20100;-60
2022/03/30 04:14:39;;;;;;;11.13;4.77;;;;;;;19.47;43.86;100530.56;5053313;28;20068;-60
2022/03/30 04:17:04;;;;;;;11.38;5.43;;;;;;;19.47;43.92;100535.00;5053199;28;20308;-60
2022/03/30 04:19:30;;;;;;;10.68;4.80;;;;;;;19.47;43.98;100532.34;5052399;28;20377;-60
2022/03/30 04:21:55;;;;;;;10.00;5.00;;;;;;;19.45;43.99;100535.16;5053069;28;20060;-60
2022/03/30 04:24:20;;;;;;;10.38;5.00;;;;;;;19.45;44.85;100529.84;5052531;28;20021;-60
2022/03/30 04:26:46;;;;;;;8.40;4.63;;;;;;;19.46;44.33;100528.06;5053048;28;20064;-60
2022/03/30 04:29:11;;;;;;;9.57;5.40;;;;;;;19.48;44.43;100532.22;5052999;28;20282;-60
2022/03/30 04:31:36;;;;;;;8.70;4.40;;;;;;;19.50;44.77;100534.72;5052461;28;20126;-61
2022/03/30 04:34:01;;;;;;;9.77;5.60;;;;;;;19.52;44.56;100528.34;5053022;28;20383;-60
2022/03/30 04:36:27;;;;;;;10.75;5.63;;;;;;;19.54;44.54;100531.66;5053157;28;20274;-59
2022/03/30 04:38:52;;;;;;;8.50;4.70;;;;;;;19.55;44.45;100527.19;5051846;28;20029;-59
2022/03/30 04:41:18;;;;;;;9.10;5.13;;;;;;;19.57;44.66;100533.19;5052507;28;20781;-60
2022/03/30 04:43:44;;;;;;;9.48;5.10;;;;;;;19.56;44.50;100529.69;5053075;28;20377;-60
2022/03/30 04:46:09;;;;;;;10.45;4.88;;;;;;;19.59;44.50;100531.25;5051761;28;20075;-60
2022/03/30 04:48:36;;;;;;;10.70;4.72;;;;;;;19.58;44.65;100533.06;5052946;28;20488;-60
2022/03/30 04:51:01;;;;;;;13.65;5.68;;;;;;;19.60;44.81;100538.22;5052484;28;20067;-60
2022/03/30 04:53:27;;;;;;;10.02;4.82;;;;;;;19.62;44.63;100540.72;5051969;28;20033;-60
2022/03/30 04:55:52;;;;;;;11.35;5.25;;;;;;;19.61;44.46;100539.03;5052399;28;20028;-60
2022/03/30 04:58:17;;;;;;;9.87;5.00;;;;;;;19.60;44.53;100538.22;5052899;28;20025;-60
2022/03/30 05:00:43;;;;;;;11.10;5.73;;;;;;;19.60;44.45;100537.34;5052213;28;20376;-60
2022/03/30 05:03:08;;;;;;;10.93;5.10;;;;;;;19.60;44.38;100537.34;5052219;28;20059;-59
2022/03/30 05:05:33;;;;;;;9.63;5.15;;;;;;;19.57;43.47;100535.84;5052628;28;20041;-59
2022/03/30 05:07:59;;;;;;;12.43;5.83;;;;;;;19.59;44.48;100539.16;5051422;28;20028;-60
2022/03/30 05:10:24;;;;;;;10.45;5.28;;;;;;;19.60;43.38;100538.22;5052430;28;20278;-60
2022/03/30 05:12:50;;;;;;;8.73;4.60;;;;;;;19.61;43.49;100533.75;5052426;28;20032;-60
2022/03/30 05:15:16;;;;;;;9.35;4.88;;;;;;;19.63;43.87;100531.78;5051541;28;20341;-60
2022/03/30 05:17:46;;;;;;;8.50;4.40;;;;;;;19.67;44.21;100533.19;5052328;28;20057;-60
2022/03/30 05:20:13;;;;;;;9.88;4.55;;;;;;;19.71;44.09;100532.75;5052255;28;20051;-60
2022/03/30 05:22:42;;;;;;;7.80;4.68;;;;;;;19.75;44.27;100531.47;5051933;28;20025;-61
2022/03/30 05:25:08;;;;;;;11.13;4.90;;;;;;;19.79;44.59;100526.78;5052104;28;20511;-61
2022/03/30 05:27:34;;;;;;;7.88;4.03;;;;;;;19.84;44.90;100526.38;5051718;28;20025;-61
2022/03/30 05:29:59;;;;;;;8.57;4.18;;;;;;;19.86;44.90;100524.41;5052215;28;20087;-61
2022/03/30 05:32:25;;;;;;;7.75;4.00;;;;;;;19.89;45.02;100522.28;5052397;28;20017;-60
2022/03/30 05:34:51;;;;;;;8.02;4.18;;;;;;;19.91;45.07;100530.09;5051443;28;20028;-61
2022/03/30 05:37:16;;;;;;;7.88;3.70;;;;;;;19.92;45.19;100522.00;5052427;28;20433;-60
2022/03/30 05:39:42;;;;;;;9.07;3.83;;;;;;;19.97;44.83;100523.41;5052199;28;20029;-60
2022/03/30 05:42:14;;;;;;;7.65;4.07;;;;;;;19.96;44.97;100527.84;5051489;28;20028;-60
2022/03/30 05:44:40;;;;;;;8.13;3.63;;;;;;;19.98;44.82;100525.91;5052262;28;20021;-61
2022/03/30 05:47:07;;;;;;;8.30;4.63;;;;;;;19.99;44.89;100522.25;5051992;28;20350;-61
2022/03/30 05:49:37;;;;;;;8.20;3.70;;;;;;;20.01;45.04;100517.69;5051453;28;20079;-61
2022/03/30 05:52:03;;;;;;;7.88;3.75;;;;;;;20.01;44.87;100515.03;5051719;28;20388;-61
2022/03/30 05:54:29;;;;;;;6.63;3.45;;;;;;;20.05;44.98;100515.56;5055347;28;20035;-60
2022/03/30 05:57:00;;;;;;;9.15;3.75;;;;;;;20.06;44.64;100520.72;5055172;28;20025;-60
2022/03/30 05:59:26;;;;;;;8.02;3.58;;;;;;;20.06;44.80;100520.72;5056084;28;20029;-60
2022/03/30 06:01:54;;;;;;;7.30;3.40;;;;;;;20.07;44.97;100527.66;5055614;28;20063;-60
2022/03/30 06:04:19;;;;;;;9.32;4.03;;;;;;;20.10;44.08;100529.19;5054782;28;20028;-58
2022/03/30 06:06:44;;;;;;;11.18;5.05;;;;;;;20.10;42.89;100531.81;5055612;28;20029;-59
2022/03/30 06:09:10;;;;;;;8.65;4.15;;;;;;;20.14;44.21;100537.66;5055386;28;20494;-60
2022/03/30 06:11:35;;;;;;;8.48;4.38;;;;;;;20.15;44.28;100532.22;5055086;28;20029;-60
2022/03/30 06:14:01;;;;;;;8.23;4.00;;;;;;;20.21;44.32;100539.56;5055128;28;20052;-60
2022/03/30 06:16:27;;;;;;;8.45;3.80;;;;;;;20.23;44.55;100542.91;5055675;28;20392;-60
2022/03/30 06:18:53;;;;;;;8.15;3.67;;;;;;;20.22;44.40;100541.25;5054568;28;20049;-60
2022/03/30 06:21:19;;;;;;;7.43;4.03;;;;;;;20.27;44.24;100546.13;5055552;28;20021;-60
2022/03/30 06:23:44;;;;;;;9.45;3.85;;;;;;;20.30;44.13;100540.53;5055571;28;20032;-59
2022/03/30 06:26:09;;;;;;;10.07;4.25;;;;;;;20.27;44.07;100533.72;5054433;28;20032;-60
2022/03/30 06:28:35;;;;;;;11.95;4.10;;;;;;;20.33;44.32;100544.69;5055337;28;20025;-60
2022/03/30 06:31:01;;;;;;;9.73;3.70;;;;;;;20.27;44.14;100549.59;5054312;28;20048;-60
2022/03/30 06:33:26;;;;;;;8.75;3.60;;;;;;;20.30;44.21;100548.47;5055194;28;20772;-59
2022/03/30 06:35:51;;;;;;;8.10;3.75;;;;;;;20.30;44.67;100548.47;5054741;28;20025;-58
2022/03/30 06:38:19;;;;;;;7.67;3.60;;;;;;;20.30;44.45;100544.00;5054571;28;20075;-62
2022/03/30 06:40:46;;;;;;;7.07;3.92;;;;;;;20.32;44.45;100543.03;5055401;28;20318;-59
2022/03/30 06:43:12;;;;;;;7.55;3.80;;;;;;;20.33;44.35;100542.03;5055086;28;20017;-61
2022/03/30 06:45:37;;;;;;;8.20;3.38;;;;;;;20.35;44.25;100537.44;5054218;28;20502;-59
2022/03/30 06:48:03;;;;;;;7.15;3.25;;;;;;;20.39;44.18;100544.09;5054825;28;20090;-60
2022/03/30 06:50:32;;;;;;;8.10;3.65;;;;;;;20.48;44.00;100545.88;5054907;28;20028;-60
2022/03/30 06:52:57;;;;;;;7.88;3.75;;;;;;;20.58;43.88;100540.50;5053987;28;20057;-61
2022/03/30 06:55:26;;;;;;;7.97;3.78;;;;;;;20.68;43.72;100535.19;5054927;28;20148;-63
2022/03/30 06:57:51;;;;;;;8.32;4.07;;;;;;;20.78;43.52;100531.50;5054635;28;20048;-61
2022/03/30 07:00:17;;;;;;;8.60;4.05;;;;;;;20.87;43.29;100534.22;5054204;28;20515;-61
2022/03/30 07:02:43;;;;;;;8.15;3.75;;;;;;;20.91;43.73;100527.66;5054619;28;20403;-59
2022/03/30 07:05:09;;;;;;;8.00;3.90;;;;;;;20.95;43.28;100531.66;5053881;28;20021;-59
2022/03/30 07:10:18;;;;;;;7.57;4.00;;;;;;;20.97;43.20;100514.63;5055051;28;20095;-60
2022/03/30 07:12:51;;;;;;;8.73;4.05;;;;;;;21.02;43.04;100530.91;5054451;28;20036;-61
2022/03/30 07:15:20;;;;;;;8.05;3.90;;;;;;;21.04;43.12;100538.72;5053730;28;20049;-60
2022/03/30 07:17:49;;;;;;;10.85;4.00;;;;;;;21.06;43.28;100539.41;5054396;28;20033;-60
2022/03/30 07:20:15;;;;;;;7.35;3.83;;;;;;;21.10;43.24;100534.63;5053909;28;20533;-60
2022/03/30 07:22:41;;;;;;;10.07;3.78;;;;;;;21.14;43.39;100528.03;5054476;28;20540;-59
2022/03/30 07:25:07;;;;;;;8.68;3.85;;;;;;;21.13;43.29;100518.44;5054034;28;20422;-61
2022/03/30 07:27:32;;;;;;;8.27;3.55;;;;;;;21.18;42.88;100522.28;5053632;28;20021;-58
2022/03/30 07:29:58;;;;;;;8.87;3.70;;;;;;;21.19;43.30;100531.06;5053856;28;20048;-62
2022/03/30 07:32:24;;;;;;;10.80;4.03;;;;;;;21.22;43.12;100527.28;5054467;28;20266;-60
2022/03/30 07:34:52;;;;;;;8.25;4.07;;;;;;;21.22;43.29;100530.78;5053131;28;20021;-60
2022/03/30 07:37:17;;;;;;;8.52;4.05;;;;;;;21.19;43.09;100534.56;5053927;28;20032;-59
2022/03/30 07:39:42;;;;;;;8.75;3.58;;;;;;;21.17;43.33;100530.38;5053921;28;20029;-61
2022/03/30 07:42:08;;;;;;;8.77;4.00;;;;;;;21.14;43.75;100520.94;5053014;28;20029;-60
2022/03/30 07:44:33;;;;;;;7.10;3.47;;;;;;;21.16;43.64;100524.25;5053862;28;20028;-62
2022/03/30 07:46:59;;;;;;;8.70;4.77;;;;;;;21.12;43.03;100514.94;5053678;28;20033;-61
2022/03/30 07:49:24;;;;;;;8.30;3.92;;;;;;;21.13;43.25;100521.09;5052863;28;20274;-60
2022/03/30 07:51:50;;;;;;;8.35;3.90;;;;;;;21.12;43.53;100522.06;5053606;28;20028;-61
2022/03/30 07:54:15;;;;;;;10.47;3.93;;;;;;;21.10;43.53;100516.91;5053792;28;20021;-61
2022/03/30 07:56:40;;;;;;;8.57;4.10;;;;;;;21.05;43.56;100515.72;5052902;28;20277;-61
2022/03/30 07:59:06;;;;;;;10.73;4.80;;;;;;;21.04;43.70;100527.28;5053365;28;20320;-61
2022/03/30 08:01:31;;;;;;;9.75;3.78;;;;;;;20.99;42.67;100522.44;5053768;28;20327;-60
2022/03/30 08:03:59;;;;;;;8.90;4.20;;;;;;;20.95;42.61;100524.56;5052494;28;20021;-62
2022/03/30 08:06:26;;;;;;;10.85;4.07;;;;;;;20.91;43.44;100517.88;5053666;28;20033;-61
2022/03/30 08:08:52;;;;;;;8.48;4.45;;;;;;;20.90;42.56;100523.34;5053097;28;20066;-60
2022/03/30 08:11:17;;;;;;;11.35;4.93;;;;;;;20.85;42.83;100526.44;5052639;28;20020;-60
2022/03/30 08:13:42;;;;;;;9.03;3.87;;;;;;;20.84;43.49;100530.09;5053092;28;20045;-60
2022/03/30 08:16:07;;;;;;;7.37;3.60;;;;;;;20.83;43.81;100534.53;5052621;28;20281;-61
2022/03/30 08:18:32;;;;;;;10.00;4.40;;;;;;;20.85;44.22;100534.38;5052607;28;20040;-61
2022/03/30 08:23:42;;;;;;;7.47;3.97;;;;;;;20.87;44.35;100535.09;5052751;28;20284;-60
2022/03/30 08:26:07;;;;;;;9.13;4.27;;;;;;;20.90;44.47;100531.28;5052846;28;20029;-61
2022/03/30 08:28:32;;;;;;;8.45;3.80;;;;;;;20.94;44.42;100530.84;5053077;28;20331;-61
2022/03/30 08:30:58;;;;;;;9.70;3.60;;;;;;;20.97;44.49;100533.19;5052244;28;20021;-61
2022/03/30 08:33:26;;;;;;;6.85;3.50;;;;;;;21.01;44.54;100534.56;5053155;28;20017;-61
2022/03/30 08:35:53;;;;;;;9.60;3.72;;;;;;;21.01;44.10;100537.22;5052811;28;20029;-62
2022/03/30 08:38:18;;;;;;;7.68;3.70;;;;;;;21.02;44.06;100530.09;5052283;28;20108;-61
2022/03/30 08:40:44;;;;;;;9.50;3.67;;;;;;;21.02;44.46;100535.38;5052860;28;20021;-61
2022/03/30 08:43:09;;;;;;;9.25;3.58;;;;;;;21.01;44.29;100531.91;5052796;28;20024;-60
2022/03/30 08:45:34;;;;;;;7.80;3.72;;;;;;;21.01;44.20;100528.41;5052285;28;20105;-59
2022/03/30 08:48:01;;;;;;;8.50;4.07;;;;;;;21.02;44.24;100516.84;5052598;28;20060;-61
2022/03/30 08:50:26;;;;;;;7.25;3.30;;;;;;;21.04;44.03;100514.03;5052883;28;20449;-59
2022/03/30 08:52:55;;;;;;;8.10;3.72;;;;;;;21.04;44.15;100514.03;5051938;28;20056;-60
2022/03/30 08:55:21;;;;;;;7.38;3.90;;;;;;;21.05;43.54;100508.59;5052680;28;20540;-60
2022/03/30 08:57:46;;;;;;;10.23;4.03;;;;;;;21.05;43.52;100513.06;5052704;28;20112;-60
2022/03/30 09:00:17;;;;;;;8.18;3.78;;;;;;;21.04;43.84;100508.75;5051893;28;20384;-59
2022/03/30 09:03:00;;;;;;;7.63;3.60;;;;;;;21.05;43.58;100510.41;5052805;28;20100;-59
2022/03/30 09:05:27;;;;;;;8.00;3.33;;;;;;;21.04;43.51;100519.34;5052611;28;20053;-60
2022/03/30 09:08:06;;;;;;;7.60;3.50;;;;;;;21.02;43.73;100512.38;5051475;28;20074;-60
2022/03/30 09:10:31;;;;;;;7.28;3.63;;;;;;;21.00;43.70;100511.69;5049767;28;20041;-60
2022/03/30 09:12:56;;;;;;;8.30;3.40;;;;;;;20.99;43.92;100520.63;5051328;28;20047;-60
2022/03/30 09:15:23;;;;;;;8.88;3.90;;;;;;;20.95;43.93;100502.53;5052749;28;20392;-59
2022/03/30 09:17:49;;;;;;;7.15;3.55;;;;;;;20.95;43.99;100506.03;5052414;28;20074;-70
2022/03/30 09:20:20;;;;;;;7.80;3.72;;;;;;;20.97;43.99;100500.56;5051876;28;20029;-60
2022/03/30 09:22:52;;;;;;;6.72;3.25;;;;;;;20.99;43.75;100499.41;5052476;28;20041;-60
2022/03/30 09:25:18;;;;;;;8.18;3.13;;;;;;;20.99;43.78;100503.91;5052552;28;20116;-61
2022/03/30 09:27:45;;;;;;;7.55;3.72;;;;;;;20.97;44.38;100505.88;5053984;28;20063;-60
2022/03/30 09:30:16;;;;;;;6.43;3.10;;;;;;;20.97;44.53;100504.03;5056279;28;20025;-60
2022/03/30 09:32:44;;;;;;;6.88;3.50;;;;;;;20.97;44.33;100492.63;5056657;28;20029;-60
2022/03/30 09:35:33;;;;;;;9.73;3.60;;;;;;;20.98;44.22;100484.53;5055350;28;20029;-60
2022/03/30 09:38:10;;;;;;;7.70;2.97;;;;;;;20.97;44.42;100492.63;5056223;28;20380;-61
2022/03/30 09:40:42;;;;;;;6.85;3.25;;;;;;;20.94;44.36;100483.16;5056112;28;20366;-61
2022/03/30 09:43:19;;;;;;;7.82;3.60;;;;;;;20.95;44.43;100483.97;5055231;28;20085;-60
2022/03/30 09:45:47;;;;;;;6.32;3.35;;;;;;;20.93;44.37;100478.84;5056324;28;20052;-60
2022/03/30 09:48:16;;;;;;;6.47;3.10;;;;;;;20.91;44.43;100478.16;5055208;28;20041;-60
2022/03/30 09:50:43;;;;;;;7.13;3.80;;;;;;;20.91;44.44;100472.88;5056046;28;20546;-60
2022/03/30 09:53:14;;;;;;;6.47;3.20;;;;;;;20.88;44.26;100467.88;5055827;28;20025;-60
2022/03/30 09:56:04;;;;;;;5.93;3.13;;;;;;;20.89;44.55;100474.03;5055375;28;20542;-61
2022/03/30 09:58:32;;;;;;;7.07;3.30;;;;;;;20.90;44.05;100467.72;5056254;28;20103;-61
2022/03/30 10:01:13;;;;;;;8.77;3.53;;;;;;;20.88;44.08;100475.81;5055523;28;20577;-62
2022/03/30 10:03:42;;;;;;;6.95;3.58;;;;;;;20.86;44.19;100467.19;5055294;28;20532;-61
2022/03/30 10:06:09;;;;;;;7.80;3.60;;;;;;;20.85;43.95;100460.22;5055417;28;20037;-61
2022/03/30 10:08:34;;;;;;;6.82;3.35;;;;;;;20.86;43.87;100464.53;5055923;28;20020;-61
2022/03/30 10:10:59;;;;;;;8.13;4.13;;;;;;;20.83;44.57;100460.38;5054770;28;20078;-61
2022/03/30 10:13:28;;;;;;;10.80;4.95;;;;;;;20.83;44.68;100460.38;5055610;28;20045;-61
2022/03/30 10:15:53;;;;;;;11.50;5.15;;;;;;;20.83;44.67;100463.03;5055038;28;20032;-60
2022/03/30 10:18:22;;;;;;;12.45;5.13;;;;;;;20.84;43.83;100458.56;5054987;28;20037;-61
2022/03/30 10:20:50;;;;;;;11.82;5.40;;;;;;;20.84;44.49;100454.09;5055563;28;20372;-61
2022/03/30 10:23:48;;;;;;;11.73;5.25;;;;;;;20.85;44.41;100452.28;5055019;28;20494;-60
2022/03/30 10:26:45;;;;;;;10.27;5.18;;;;;;;20.87;44.25;100450.34;5034121;28;20124;-62
2022/03/30 10:29:15;;;;;;;10.50;5.53;;;;;;;20.89;44.32;100445.72;5051948;28;20045;-62
2022/03/30 10:31:40;;;;;;;10.93;4.63;;;;;;;20.94;44.85;100447.91;5054479;28;20480;-62
2022/03/30 10:34:26;;;;;;;10.90;4.97;;;;;;;21.00;45.21;100442.00;5055212;28;20035;-60
2022/03/30 10:37:00;;;;;;;9.82;5.03;;;;;;;21.07;45.48;100447.50;5055221;28;20049;-60
2022/03/30 10:39:27;;;;;;;10.57;4.90;;;;;;;21.11;45.22;100432.94;5054546;28;20048;-63
2022/03/30 10:41:53;;;;;;;11.45;5.05;;;;;;;21.15;45.46;100431.66;5054814;28;20035;-62
2022/03/30 10:44:37;;;;;;;10.57;5.20;;;;;;;21.19;45.42;100431.22;5054598;28;20017;-62
2022/03/30 10:47:07;;;;;;;10.38;4.93;;;;;;;21.22;45.79;100422.13;5054812;28;20108;-62
2022/03/30 10:49:50;;;;;;;10.50;5.50;;;;;;;21.22;45.68;100422.13;5055115;28;20029;-61
2022/03/30 10:52:31;;;;;;;14.00;4.82;;;;;;;21.22;45.88;100416.81;5054344;28;20036;-60
2022/03/30 10:55:30;;;;;;;12.02;4.90;;;;;;;21.25;45.66;100413.84;5054852;28;20021;-63
2022/03/30 10:58:18;;;;;;;12.10;4.90;;;;;;;21.27;45.82;100413.69;5032088;28;20116;-61
2022/03/30 11:00:44;;;;;;;11.95;4.78;;;;;;;21.32;45.92;100408.75;5055119;28;20036;-61
2022/03/30 11:03:25;;;;;;;12.43;4.82;;;;;;;21.34;45.88;100410.25;5054719;28;20440;-61
2022/03/30 11:06:06;;;;;;;11.32;4.95;;;;;;;21.36;45.80;100410.94;5053829;28;20025;-61
2022/03/30 11:08:31;;;;;;;10.90;5.10;;;;;;;21.37;45.55;100404.63;5054660;28;20477;-61
2022/03/30 11:11:00;;;;;;;10.77;4.67;;;;;;;21.40;45.91;100403.50;5054354;28;20104;-61
2022/03/30 11:13:26;;;;;;;8.85;4.40;;;;;;;21.41;45.27;100399.03;5053832;28;20033;-63
2022/03/30 11:15:59;;;;;;;9.57;5.03;;;;;;;21.38;45.19;100390.41;5054260;28;20456;-62
2022/03/30 11:18:28;;;;;;;11.63;4.55;;;;;;;21.37;44.89;100393.22;5054653;28;20063;-63
2022/03/30 11:21:15;;;;;;;10.25;4.45;;;;;;;21.36;45.21;100386.25;5053384;28;20075;-63
2022/03/30 11:23:55;;;;;;;10.40;4.15;;;;;;;21.30;45.22;100387.72;5054724;28;20025;-62
2022/03/30 11:26:22;;;;;;;8.98;4.38;;;;;;;21.30;45.63;100377.13;5055052;28;20029;-61
2022/03/30 11:28:47;;;;;;;9.98;4.50;;;;;;;21.34;45.79;100372.31;5054864;28;20029;-62
2022/03/30 11:31:19;;;;;;;8.70;4.47;;;;;;;21.37;45.52;100366.72;5054142;28;20021;-61